Time;durP1;ratioP1;P1;durP2;ratioP2;P2;SDS_P1;SDS_P2;PMS_P1;PMS_P2;Temp;Humidity;BMP_temperature;BMP_pressure;BME280_temperature;BME280_humidity;BME280_pressure;Samples;Min_cycle;Max_cycle;Signal;HPM_P1;HPM_P2
2022/03/01 00:00:58;;;;;;;15.80;10.55;;;;;;;3.71;66.18;102708.66;5263997;28;20398;-71
2022/03/01 00:03:29;;;;;;;16.08;10.88;;;;;;;3.73;67.21;102709.47;5261972;28;20061;-70
2022/03/01 00:06:00;;;;;;;16.90;11.05;;;;;;;3.72;66.41;102714.72;5259834;28;20386;-71
2022/03/01 00:08:31;;;;;;;16.13;11.48;;;;;;;3.64;67.77;102718.34;5260678;28;20492;-71
2022/03/01 00:11:03;;;;;;;14.85;10.82;;;;;;;3.57;67.23;102734.94;5260053;28;20588;-71
2022/03/01 00:13:36;;;;;;;17.13;11.75;;;;;;;3.59;67.38;102732.28;5261560;28;20050;-70
2022/03/01 00:16:07;;;;;;;16.95;10.98;;;;;;;3.47;66.97;102724.84;5262107;28;20552;-70
2022/03/01 00:18:39;;;;;;;16.17;10.85;;;;;;;3.49;68.61;102723.06;5265291;28;20135;-71
2022/03/01 00:21:10;;;;;;;16.38;11.05;;;;;;;3.33;69.19;102723.44;5260823;28;20024;-71
2022/03/01 00:23:42;;;;;;;18.52;12.27;;;;;;;3.29;67.76;102715.78;5264398;28;20465;-71
2022/03/01 00:26:13;;;;;;;16.52;10.93;;;;;;;3.29;67.49;102716.63;5263610;28;20031;-70
2022/03/01 00:28:44;;;;;;;15.38;10.90;;;;;;;3.31;70.50;102717.44;5263510;28;20037;-70
2022/03/01 00:31:16;;;;;;;17.45;10.93;;;;;;;3.20;69.82;102718.59;5261749;28;20069;-70
2022/03/01 00:33:50;;;;;;;16.02;11.30;;;;;;;3.16;71.56;102713.47;5258822;28;20070;-71
2022/03/01 00:36:21;;;;;;;17.10;10.88;;;;;;;3.01;69.56;102726.78;5261720;28;20464;-70
2022/03/01 00:38:52;;;;;;;17.98;11.50;;;;;;;2.90;69.88;102721.84;5260469;28;20025;-71
2022/03/01 00:41:24;;;;;;;17.48;11.23;;;;;;;2.91;69.81;102715.78;5261646;28;20146;-70
2022/03/01 00:43:55;;;;;;;16.00;10.75;;;;;;;2.91;70.19;102727.88;5257355;28;20025;-70
2022/03/01 00:46:26;;;;;;;17.27;11.25;;;;;;;2.85;70.80;102723.69;5258570;28;20025;-70
2022/03/01 00:48:58;;;;;;;16.60;11.00;;;;;;;2.78;70.80;102721.28;5257829;28;20036;-70
2022/03/01 00:51:30;;;;;;;15.68;11.13;;;;;;;2.80;71.17;102720.34;5259593;28;20102;-70
2022/03/01 00:54:01;;;;;;;14.43;10.55;;;;;;;2.84;70.44;102729.78;5263690;28;20031;-71
2022/03/01 00:56:34;;;;;;;15.95;11.20;;;;;;;2.87;70.13;102721.91;5259493;28;20036;-70
2022/03/01 00:59:05;;;;;;;14.15;10.50;;;;;;;2.91;70.26;102725.28;5258888;28;20024;-71
2022/03/01 01:01:37;;;;;;;16.60;10.82;;;;;;;2.91;70.81;102725.28;5259077;28;20029;-70
2022/03/01 01:04:08;;;;;;;20.35;10.98;;;;;;;2.90;70.85;102728.75;5259352;28;20033;-71
2022/03/01 01:06:39;;;;;;;15.88;10.07;;;;;;;2.90;70.69;102727.03;5261570;28;20028;-70
2022/03/01 01:09:13;;;;;;;17.17;10.77;;;;;;;2.95;69.04;102726.91;5260053;28;20028;-71
2022/03/01 01:11:44;;;;;;;14.68;10.50;;;;;;;2.89;68.98;102722.75;5258893;28;20033;-70
2022/03/01 01:14:16;;;;;;;14.43;10.25;;;;;;;2.86;69.93;102712.44;5252127;28;20025;-71
2022/03/01 01:16:47;;;;;;;16.27;10.68;;;;;;;2.96;68.67;102720.88;5260832;28;20107;-70
2022/03/01 01:19:18;;;;;;;15.20;10.10;;;;;;;2.94;69.28;102712.28;5260016;28;20012;-71
2022/03/01 01:24:39;;;;;;;18.15;11.02;;;;;;;2.95;71.41;102719.16;5257706;28;20033;-70
2022/03/01 01:27:11;;;;;;;18.48;10.77;;;;;;;2.94;69.13;102712.28;5258369;28;20490;-70
2022/03/01 01:29:42;;;;;;;16.65;11.40;;;;;;;2.94;69.27;102720.03;5258954;28;20020;-71
2022/03/01 01:32:13;;;;;;;14.88;10.82;;;;;;;2.90;69.12;102718.41;5259427;28;20021;-70
2022/03/01 01:34:45;;;;;;;15.70;10.25;;;;;;;2.92;68.98;102711.47;5261743;28;20603;-71
2022/03/01 01:37:16;;;;;;;14.55;10.20;;;;;;;2.84;70.06;102721.13;5262508;28;20779;-70
2022/03/01 01:39:47;;;;;;;16.65;11.63;;;;;;;2.82;72.37;102709.97;5258500;28;20028;-70
2022/03/01 01:42:19;;;;;;;14.15;10.80;;;;;;;2.87;71.06;102721.91;5257578;28;20036;-70
2022/03/01 01:44:50;;;;;;;15.05;10.90;;;;;;;2.77;70.01;102706.66;5258486;28;20021;-71
2022/03/01 01:47:21;;;;;;;13.77;10.57;;;;;;;2.84;70.20;102715.94;5259086;28;20543;-70
2022/03/01 01:49:53;;;;;;;16.50;10.70;;;;;;;2.82;70.10;102713.41;5258799;28;20490;-71
2022/03/01 01:52:25;;;;;;;14.55;10.50;;;;;;;2.85;69.48;102712.50;5258719;28;20743;-72
2022/03/01 01:54:57;;;;;;;14.17;10.23;;;;;;;2.87;68.65;102710.72;5258115;28;20024;-71
2022/03/01 01:57:28;;;;;;;15.65;10.43;;;;;;;2.87;69.98;102713.28;5258251;28;20037;-72
2022/03/01 02:00:00;;;;;;;17.42;11.48;;;;;;;2.91;68.86;102717.53;5257138;28;20055;-72
2022/03/01 02:02:32;;;;;;;14.23;10.50;;;;;;;2.91;68.83;102699.41;5257989;28;20036;-71
2022/03/01 02:05:04;;;;;;;15.35;10.40;;;;;;;2.92;68.94;102714.91;5255639;28;20029;-71
2022/03/01 02:07:36;;;;;;;15.43;10.75;;;;;;;2.94;68.46;102699.34;5251770;28;20036;-71
2022/03/01 02:10:08;;;;;;;15.02;10.43;;;;;;;2.94;67.98;102707.09;5258767;28;20124;-72
2022/03/01 02:12:39;;;;;;;15.52;10.77;;;;;;;2.90;67.32;102693.38;5256720;28;20032;-71
2022/03/01 02:15:10;;;;;;;15.82;10.80;;;;;;;2.94;67.75;102694.16;5255704;28;20039;-71
2022/03/01 02:17:43;;;;;;;14.68;10.38;;;;;;;2.98;67.75;102695.78;5256511;28;20394;-71
2022/03/01 02:20:19;;;;;;;16.00;9.67;;;;;;;3.02;66.79;102696.56;5253162;28;20085;-72
2022/03/01 02:22:55;;;;;;;15.93;10.68;;;;;;;3.07;67.90;102695.59;5257085;28;20501;-71
2022/03/01 02:25:26;;;;;;;13.18;9.80;;;;;;;2.97;68.03;102704.44;5260031;28;20067;-71
2022/03/01 02:27:58;;;;;;;15.70;10.75;;;;;;;2.92;67.97;102694.19;5255970;28;20107;-71
2022/03/01 02:30:29;;;;;;;15.48;10.10;;;;;;;2.97;67.29;102695.81;5257958;28;20540;-71
2022/03/01 02:33:01;;;;;;;15.20;10.20;;;;;;;2.97;68.16;102701.00;5257516;28;20264;-71
2022/03/01 02:35:33;;;;;;;15.65;10.50;;;;;;;2.96;68.14;102694.13;5258598;28;20033;-74
2022/03/01 02:38:04;;;;;;;16.33;9.45;;;;;;;3.02;66.41;102692.22;5258127;28;20024;-71
2022/03/01 02:40:36;;;;;;;18.92;10.27;;;;;;;2.98;67.35;102695.78;5259922;28;20031;-72
2022/03/01 02:43:10;;;;;;;15.00;10.15;;;;;;;3.03;67.23;102696.53;5255908;28;20190;-71
2022/03/01 02:45:41;;;;;;;16.13;9.68;;;;;;;3.03;66.90;102696.53;5257776;28;20067;-72
2022/03/01 02:48:12;;;;;;;14.18;10.27;;;;;;;3.00;66.93;102681.06;5260227;28;20031;-71
2022/03/01 02:50:43;;;;;;;16.38;10.35;;;;;;;3.09;66.45;102680.00;5261858;28;20270;-72
2022/03/01 02:53:15;;;;;;;13.43;9.85;;;;;;;3.05;66.61;102676.63;5258027;28;20034;-71
2022/03/01 02:55:46;;;;;;;14.85;9.88;;;;;;;3.16;65.10;102677.22;5257512;28;20082;-72
2022/03/01 02:58:17;;;;;;;15.80;10.13;;;;;;;3.16;65.49;102679.81;5261253;28;20106;-72
2022/03/01 03:00:49;;;;;;;13.75;9.80;;;;;;;3.15;66.01;102679.88;5256755;28;20267;-72
2022/03/01 03:03:20;;;;;;;13.45;9.98;;;;;;;3.20;65.48;102677.16;5260881;28;20032;-71
2022/03/01 03:05:51;;;;;;;12.90;9.48;;;;;;;3.21;65.92;102681.44;5259272;28;20029;-71
2022/03/01 03:08:23;;;;;;;13.98;9.05;;;;;;;3.23;65.47;102682.25;5258095;28;20028;-72
2022/03/01 03:10:54;;;;;;;14.48;9.98;;;;;;;3.26;65.05;102677.88;5258650;28;20060;-71
2022/03/01 03:13:26;;;;;;;13.90;10.00;;;;;;;3.28;65.06;102675.22;5256798;28;20028;-71
2022/03/01 03:15:57;;;;;;;11.93;9.05;;;;;;;3.30;63.67;102669.13;5257781;28;20204;-71
2022/03/01 03:18:28;;;;;;;15.20;9.88;;;;;;;3.30;65.97;102683.81;5256678;28;20081;-71
2022/03/01 03:21:00;;;;;;;14.63;9.63;;;;;;;3.25;65.39;102668.38;5253372;28;20032;-72
2022/03/01 03:23:32;;;;;;;13.73;9.32;;;;;;;3.29;65.48;102672.56;5257687;28;20024;-72
2022/03/01 03:26:03;;;;;;;13.65;9.07;;;;;;;3.30;65.02;102689.00;5257031;28;20489;-72
2022/03/01 03:28:35;;;;;;;12.68;9.70;;;;;;;3.29;65.74;102675.16;5258374;28;20107;-71
2022/03/01 03:31:06;;;;;;;13.98;9.95;;;;;;;3.29;65.02;102669.13;5264200;28;20530;-71
2022/03/01 03:33:37;;;;;;;13.85;9.77;;;;;;;3.33;65.38;102673.34;5261352;28;20056;-72
2022/03/01 03:36:09;;;;;;;13.75;9.23;;;;;;;3.33;65.21;102668.19;5264053;28;20129;-71
2022/03/01 03:38:40;;;;;;;13.85;9.65;;;;;;;3.21;66.10;102661.56;5265024;28;20031;-71
2022/03/01 03:41:12;;;;;;;11.88;9.40;;;;;;;3.30;65.54;102671.72;5259861;28;20035;-71
2022/03/01 03:43:43;;;;;;;13.30;9.60;;;;;;;3.29;64.75;102674.31;5263183;28;20017;-71
2022/03/01 03:46:16;;;;;;;14.20;9.13;;;;;;;3.28;65.04;102675.22;5260480;28;20048;-72
2022/03/01 03:48:47;;;;;;;14.00;9.93;;;;;;;3.29;65.03;102671.72;5262115;28;20056;-70
2022/03/01 03:51:20;;;;;;;13.05;9.70;;;;;;;3.35;65.03;102674.19;5262391;28;20166;-71
2022/03/01 03:53:52;;;;;;;13.85;9.75;;;;;;;3.35;64.46;102672.44;5261153;28;20029;-72
2022/03/01 03:56:23;;;;;;;12.68;8.88;;;;;;;3.32;65.46;102669.91;5261988;28;20033;-72
2022/03/01 03:58:55;;;;;;;13.25;10.18;;;;;;;3.32;65.06;102672.50;5263128;28;20040;-72
2022/03/01 04:01:26;;;;;;;14.65;10.73;;;;;;;3.30;66.38;102674.31;5261671;28;20082;-72
2022/03/01 04:03:59;;;;;;;13.57;10.30;;;;;;;3.31;66.03;102675.16;5262430;28;20024;-72
2022/03/01 04:06:30;;;;;;;13.27;9.77;;;;;;;3.33;66.46;102675.94;5263609;28;20033;-72
2022/03/01 04:09:03;;;;;;;12.60;9.18;;;;;;;3.37;65.04;102667.19;5260195;28;20029;-71
2022/03/01 04:11:35;;;;;;;12.82;9.85;;;;;;;3.36;65.25;102675.88;5258783;28;20033;-72
2022/03/01 04:14:06;;;;;;;13.93;10.43;;;;;;;3.31;64.74;102668.22;5258408;28;20409;-71
2022/03/01 04:16:42;;;;;;;14.52;10.02;;;;;;;3.34;65.72;102682.84;5262908;28;20111;-72
2022/03/01 04:19:13;;;;;;;15.15;10.45;;;;;;;3.27;65.71;102678.72;5261985;28;20489;-71
2022/03/01 04:21:45;;;;;;;14.93;10.18;;;;;;;3.34;66.16;102678.50;5263265;28;20024;-72
2022/03/01 04:24:16;;;;;;;13.63;9.40;;;;;;;3.38;65.25;102679.28;5263736;28;20170;-72
2022/03/01 04:26:47;;;;;;;13.18;10.32;;;;;;;3.36;65.32;102678.47;5262559;28;20028;-71
2022/03/01 04:29:18;;;;;;;15.65;10.60;;;;;;;3.37;65.26;102682.75;5263859;28;20029;-71
2022/03/01 04:31:50;;;;;;;14.57;10.23;;;;;;;3.36;66.21;102673.28;5258136;28;20024;-72
2022/03/01 04:34:21;;;;;;;12.68;9.73;;;;;;;3.38;64.30;102687.06;5259049;28;20398;-72
2022/03/01 04:36:52;;;;;;;13.80;10.13;;;;;;;3.42;64.89;102686.09;5258891;28;20060;-72
2022/03/01 04:39:24;;;;;;;16.00;10.25;;;;;;;3.43;63.55;102677.41;5256275;28;20040;-72
2022/03/01 04:41:56;;;;;;;14.18;9.73;;;;;;;3.38;63.99;102669.78;5260955;28;20063;-72
2022/03/01 04:44:28;;;;;;;16.17;10.60;;;;;;;3.38;64.02;102674.94;5260627;28;20044;-71
2022/03/01 04:47:01;;;;;;;15.85;10.95;;;;;;;3.42;64.37;102671.41;5260413;28;20052;-71
2022/03/01 04:49:32;;;;;;;16.75;10.73;;;;;;;3.49;64.19;102679.88;5262665;28;20501;-72
2022/03/01 04:52:04;;;;;;;14.93;10.23;;;;;;;3.49;62.83;102671.25;5258233;28;20119;-71
2022/03/01 04:54:35;;;;;;;16.48;10.45;;;;;;;3.53;63.10;102675.47;5258814;28;20502;-71
2022/03/01 04:57:06;;;;;;;13.00;9.73;;;;;;;3.57;61.50;102674.50;5259254;28;20122;-72
2022/03/01 04:59:38;;;;;;;16.15;10.23;;;;;;;3.53;62.07;102660.75;5257047;28;20024;-71
2022/03/01 05:02:10;;;;;;;14.93;9.77;;;;;;;3.62;61.55;102660.50;5259233;28;20127;-71
2022/03/01 05:04:41;;;;;;;14.60;9.70;;;;;;;3.64;61.32;102669.09;5259299;28;20397;-72
2022/03/01 05:07:12;;;;;;;14.27;10.35;;;;;;;3.62;62.16;102667.44;5257423;28;20021;-71
2022/03/01 05:09:43;;;;;;;14.75;10.20;;;;;;;3.64;61.78;102671.69;5259513;28;20116;-72
2022/03/01 05:12:15;;;;;;;16.08;10.10;;;;;;;3.61;62.99;102676.09;5260214;28;20032;-72
2022/03/01 05:14:46;;;;;;;14.30;10.10;;;;;;;3.63;61.80;102666.53;5260812;28;20021;-71
2022/03/01 05:17:18;;;;;;;15.63;10.82;;;;;;;3.63;62.52;102666.53;5257718;28;20045;-72
2022/03/01 05:19:50;;;;;;;16.48;10.60;;;;;;;3.64;63.00;102661.31;5260612;28;20405;-72
2022/03/01 05:22:21;;;;;;;15.75;10.25;;;;;;;3.65;62.36;102667.34;5257058;28;20486;-71
2022/03/01 05:24:52;;;;;;;15.00;10.00;;;;;;;3.66;61.97;102662.13;5261039;28;20508;-71
2022/03/01 05:27:24;;;;;;;12.05;9.40;;;;;;;3.61;61.39;102648.44;5259400;28;20553;-72
2022/03/01 05:29:55;;;;;;;15.77;9.80;;;;;;;3.66;60.90;102641.38;5257250;28;20112;-71
2022/03/01 05:32:27;;;;;;;13.35;9.88;;;;;;;3.69;60.13;102632.69;5260221;28;20025;-71
2022/03/01 05:34:58;;;;;;;14.20;10.38;;;;;;;3.71;60.41;102640.41;5261161;28;20024;-72
2022/03/01 05:37:30;;;;;;;13.60;9.55;;;;;;;3.71;59.57;102637.81;5258017;28;20583;-72
2022/03/01 05:40:02;;;;;;;16.88;10.60;;;;;;;3.74;59.13;102645.50;5261328;28;20066;-72
2022/03/01 05:42:34;;;;;;;15.32;10.60;;;;;;;3.73;60.06;102642.06;5259612;28;20620;-71
2022/03/01 05:45:06;;;;;;;15.38;10.20;;;;;;;3.77;59.17;102638.50;5261210;28;20037;-72
2022/03/01 05:47:38;;;;;;;20.38;10.88;;;;;;;3.75;60.54;102629.94;5259866;28;20478;-72
2022/03/01 05:50:12;;;;;;;16.13;10.27;;;;;;;3.83;59.37;102634.91;5261289;28;20555;-72
2022/03/01 05:52:43;;;;;;;;;;;;;;;4.19;59.09;102632.16;5260446;28;20183;-70
2022/03/01 05:55:14;;;;;;;16.50;10.07;;;;;;;3.78;60.21;102647.13;5260208;28;19913;-72
2022/03/01 05:57:46;;;;;;;16.88;10.50;;;;;;;3.71;60.27;102637.81;5255724;28;20287;-71
2022/03/01 06:00:19;;;;;;;15.55;10.43;;;;;;;3.73;60.60;102636.03;5262171;28;20025;-72
2022/03/01 06:02:51;;;;;;;16.90;10.63;;;;;;;3.70;61.30;102633.53;5258826;28;20398;-72
2022/03/01 06:05:22;;;;;;;13.98;9.98;;;;;;;3.69;60.92;102634.44;5261061;28;20032;-71
2022/03/01 06:07:55;;;;;;;17.38;10.40;;;;;;;3.66;60.17;102635.34;5259160;28;20408;-72
2022/03/01 06:10:27;;;;;;;19.23;10.45;;;;;;;3.63;60.93;102628.50;5259854;28;20043;-71
2022/03/01 06:12:58;;;;;;;14.45;10.20;;;;;;;3.61;61.12;102630.31;5257929;28;20393;-71
2022/03/01 06:15:30;;;;;;;14.52;10.88;;;;;;;3.60;60.91;102635.53;5260432;28;20031;-72
2022/03/01 06:18:01;;;;;;;14.68;10.02;;;;;;;3.63;59.56;102633.69;5259625;28;20020;-71
2022/03/01 06:20:33;;;;;;;15.88;10.95;;;;;;;3.60;61.75;102633.78;5258344;28;20100;-71
2022/03/01 06:23:04;;;;;;;14.82;10.10;;;;;;;3.56;61.23;102628.72;5259182;28;20612;-72
2022/03/01 06:25:36;;;;;;;15.70;9.80;;;;;;;3.51;61.36;102633.19;5261862;28;20792;-72
2022/03/01 06:28:08;;;;;;;13.52;9.88;;;;;;;3.50;61.67;102627.16;5256380;28;20021;-71
2022/03/01 06:30:39;;;;;;;17.27;11.38;;;;;;;3.50;62.60;102637.50;5254091;28;20119;-71
2022/03/01 06:33:11;;;;;;;16.85;11.35;;;;;;;3.49;62.04;102642.75;5253713;28;20024;-72
2022/03/01 06:35:42;;;;;;;16.42;10.98;;;;;;;3.42;63.27;102647.22;5256628;28;20024;-72
2022/03/01 06:38:13;;;;;;;13.70;10.13;;;;;;;3.38;63.37;102655.97;5256831;28;20047;-71
2022/03/01 06:40:44;;;;;;;17.30;11.45;;;;;;;3.31;63.67;102647.50;5252151;28;20032;-71
2022/03/01 06:43:16;;;;;;;16.05;10.75;;;;;;;3.38;63.01;102655.97;5251989;28;20485;-71
2022/03/01 06:45:47;;;;;;;14.50;10.05;;;;;;;3.38;62.83;102659.41;5256270;28;20028;-71
2022/03/01 06:48:18;;;;;;;16.17;11.73;;;;;;;3.41;63.97;102663.69;5257366;28;20031;-71
2022/03/01 06:50:50;;;;;;;16.40;11.07;;;;;;;3.44;63.01;102666.16;5257578;28;20024;-70
2022/03/01 06:53:21;;;;;;;15.30;10.80;;;;;;;3.49;63.32;102672.09;5255976;28;20179;-71
2022/03/01 06:55:52;;;;;;;15.52;11.20;;;;;;;3.49;62.56;102668.66;5254861;28;20028;-72
2022/03/01 06:58:24;;;;;;;18.25;11.85;;;;;;;3.54;63.36;102683.19;5253057;28;20037;-72
2022/03/01 07:00:56;;;;;;;18.23;11.43;;;;;;;3.56;62.56;102676.22;5254458;28;20388;-72
2022/03/01 07:03:27;;;;;;;14.57;11.10;;;;;;;3.58;62.44;102666.66;5252147;28;20375;-71
2022/03/01 07:05:58;;;;;;;18.40;11.80;;;;;;;3.61;62.67;102676.09;5259950;28;20040;-71
2022/03/01 07:08:30;;;;;;;18.60;10.85;;;;;;;3.63;62.54;102674.31;5255384;28;20470;-71
2022/03/01 07:11:01;;;;;;;16.77;11.65;;;;;;;3.62;63.58;102675.22;5256906;28;20470;-72
2022/03/01 07:13:33;;;;;;;16.20;11.32;;;;;;;3.65;63.16;102678.56;5258735;28;20103;-71
2022/03/01 07:16:05;;;;;;;16.42;11.80;;;;;;;3.66;63.20;102671.63;5254983;28;20370;-72
2022/03/01 07:18:36;;;;;;;17.85;12.00;;;;;;;3.79;63.17;102665.25;5257878;28;20086;-72
2022/03/01 07:21:08;;;;;;;18.60;12.20;;;;;;;3.82;63.25;102665.13;5256649;28;20033;-72
2022/03/01 07:23:40;;;;;;;18.80;12.70;;;;;;;3.87;61.94;102671.06;5257387;28;20556;-71
2022/03/01 07:26:11;;;;;;;19.60;13.02;;;;;;;3.89;62.33;102671.88;5259665;28;20489;-72
2022/03/01 07:28:43;;;;;;;17.38;12.45;;;;;;;3.96;61.66;102682.94;5259698;28;20040;-71
2022/03/01 07:31:14;;;;;;;19.80;12.82;;;;;;;3.98;61.79;102677.69;5253068;28;20025;-71
2022/03/01 07:33:45;;;;;;;22.80;14.23;;;;;;;4.10;60.89;102685.16;5262020;28;20078;-72
2022/03/01 07:36:17;;;;;;;20.08;13.05;;;;;;;4.14;61.31;102686.75;5255790;28;20083;-72
2022/03/01 07:38:48;;;;;;;20.00;11.77;;;;;;;4.12;60.19;102691.97;5256407;28;20025;-71
2022/03/01 07:41:19;;;;;;;18.77;12.55;;;;;;;4.19;60.86;102702.19;5256026;28;20041;-71
2022/03/01 07:43:51;;;;;;;17.15;12.02;;;;;;;4.24;59.50;102700.31;5246074;28;20385;-71
2022/03/01 07:46:22;;;;;;;18.52;12.23;;;;;;;4.29;59.72;102701.88;5251329;28;20378;-71
2022/03/01 07:48:53;;;;;;;17.92;12.55;;;;;;;4.36;58.93;102692.19;5253526;28;20025;-71
2022/03/01 07:51:24;;;;;;;19.08;12.85;;;;;;;4.36;59.10;102692.19;5252822;28;20032;-71
2022/03/01 07:53:56;;;;;;;17.00;12.50;;;;;;;4.37;58.56;102691.28;5255627;28;20021;-72
2022/03/01 07:56:27;;;;;;;16.65;11.93;;;;;;;4.37;58.37;102684.34;5251929;28;20086;-71
2022/03/01 07:58:58;;;;;;;17.27;12.80;;;;;;;4.36;58.18;102682.66;5255274;28;20047;-71
2022/03/01 08:01:30;;;;;;;16.50;12.73;;;;;;;4.43;59.13;102683.31;5252100;28;20028;-71
2022/03/01 08:04:01;;;;;;;19.25;13.00;;;;;;;4.47;59.00;102684.94;5254727;28;20028;-71
2022/03/01 08:06:32;;;;;;;18.25;12.38;;;;;;;4.49;59.26;102692.66;5252949;28;20063;-72
2022/03/01 08:09:04;;;;;;;17.83;12.23;;;;;;;4.47;60.91;102690.13;5254150;28;20032;-71
2022/03/01 08:11:35;;;;;;;16.02;12.82;;;;;;;4.55;58.97;102695.09;5259911;28;20335;-71
2022/03/01 08:14:07;;;;;;;16.23;12.07;;;;;;;4.56;59.59;102689.84;5257343;28;20062;-72
2022/03/01 08:16:38;;;;;;;18.08;13.05;;;;;;;4.66;60.01;102695.63;5245774;28;20035;-72
2022/03/01 08:19:09;;;;;;;17.35;11.93;;;;;;;4.73;58.80;102697.09;5256529;28;20028;-71
2022/03/01 08:21:41;;;;;;;16.55;11.35;;;;;;;4.86;59.14;102692.41;5256983;28;20130;-72
2022/03/01 08:24:12;;;;;;;17.35;12.05;;;;;;;4.93;57.78;102703.47;5255286;28;20386;-71
2022/03/01 08:26:44;;;;;;;16.10;11.45;;;;;;;4.97;58.56;102700.72;5251309;28;20070;-72
2022/03/01 08:29:17;;;;;;;15.82;11.77;;;;;;;5.04;57.13;102710.00;5254330;28;20047;-71
2022/03/01 08:31:48;;;;;;;18.38;11.85;;;;;;;5.10;57.63;102709.78;5257207;28;20119;-72
2022/03/01 08:34:19;;;;;;;16.77;11.30;;;;;;;5.07;57.20;102704.69;5254197;28;20029;-72
2022/03/01 08:36:51;;;;;;;17.48;11.27;;;;;;;5.19;57.60;102711.28;5255115;28;20045;-71
2022/03/01 08:39:22;;;;;;;18.50;12.68;;;;;;;5.25;57.73;102710.22;5258900;28;20021;-71
2022/03/01 08:41:54;;;;;;;17.38;12.85;;;;;;;5.26;57.46;102709.31;5257973;28;20028;-72
2022/03/01 08:44:25;;;;;;;15.32;11.38;;;;;;;5.33;58.15;102714.25;5251697;28;20028;-71
2022/03/01 08:46:57;;;;;;;15.15;11.82;;;;;;;5.41;57.21;102719.19;5259251;28;20405;-72
2022/03/01 08:49:28;;;;;;;18.52;12.75;;;;;;;5.49;58.30;102712.00;5261288;28;20053;-72
2022/03/01 08:51:59;;;;;;;16.67;11.90;;;;;;;5.51;58.37;102707.59;5258693;28;20451;-71
2022/03/01 08:54:30;;;;;;;14.75;11.10;;;;;;;5.68;56.95;102724.38;5253530;28;20094;-71
2022/03/01 08:57:02;;;;;;;20.27;11.25;;;;;;;5.74;56.31;102719.81;5253219;28;20520;-72
2022/03/01 08:59:34;;;;;;;18.20;11.80;;;;;;;5.88;58.13;102729.75;5249546;28;20482;-71
2022/03/01 09:02:05;;;;;;;15.55;11.65;;;;;;;5.99;57.79;102738.06;5250558;28;20037;-72
2022/03/01 09:04:36;;;;;;;18.70;11.95;;;;;;;6.12;57.07;102741.06;5255316;28;20036;-71
2022/03/01 09:07:08;;;;;;;17.40;11.98;;;;;;;6.22;55.95;102732.03;5243943;28;20036;-71
2022/03/01 09:09:39;;;;;;;14.43;11.38;;;;;;;6.32;56.21;102742.94;5253555;28;20194;-72
2022/03/01 09:12:10;;;;;;;18.38;12.98;;;;;;;6.39;56.12;102741.81;5257170;28;20033;-72
2022/03/01 09:14:41;;;;;;;14.38;10.40;;;;;;;6.46;54.45;102729.44;5255492;28;20048;-71
2022/03/01 09:17:13;;;;;;;18.80;12.30;;;;;;;6.57;54.21;102730.72;5255743;28;20028;-72
2022/03/01 09:19:44;;;;;;;15.32;11.02;;;;;;;6.65;53.53;102719.16;5256558;28;20646;-72
2022/03/01 09:22:16;;;;;;;13.32;10.98;;;;;;;6.64;52.56;102713.13;5257479;28;20402;-72
2022/03/01 09:24:47;;;;;;;17.38;11.35;;;;;;;6.72;52.66;102731.91;5249963;28;20463;-72
2022/03/01 09:27:18;;;;;;;16.20;10.90;;;;;;;6.76;51.14;102728.25;5255152;28;20098;-72
2022/03/01 09:29:50;;;;;;;13.70;10.52;;;;;;;6.81;52.02;102728.06;5254654;28;20083;-72
2022/03/01 09:32:21;;;;;;;14.85;10.98;;;;;;;6.84;52.33;102730.56;5251867;28;20111;-72
2022/03/01 09:34:54;;;;;;;13.15;10.30;;;;;;;6.89;51.07;102723.41;5250387;28;20060;-72
2022/03/01 09:37:26;;;;;;;;;;;;;;;7.31;51.86;102726.09;5256342;28;20063;-72
2022/03/01 09:40:03;;;;;;;16.17;11.05;;;;;;;6.96;50.40;102722.28;5256167;28;20357;-71
2022/03/01 09:42:35;;;;;;;14.73;10.77;;;;;;;6.96;51.33;102724.03;5255101;28;20024;-71
2022/03/01 09:45:07;;;;;;;17.58;11.30;;;;;;;7.06;51.52;102739.25;5257284;28;20554;-72
2022/03/01 09:47:39;;;;;;;15.93;11.55;;;;;;;7.10;50.62;102739.97;5255747;28;20418;-72
2022/03/01 09:50:12;;;;;;;15.35;11.93;;;;;;;7.14;50.81;102738.09;5248979;28;20024;-72
2022/03/01 09:52:44;;;;;;;14.52;10.18;;;;;;;7.27;51.35;102745.38;5255966;28;20158;-72
2022/03/01 09:55:16;;;;;;;15.88;10.25;;;;;;;7.36;51.47;102740.69;5258627;28;20608;-72
2022/03/01 09:57:47;;;;;;;17.25;11.43;;;;;;;7.44;50.88;102743.81;5258148;28;20147;-72
2022/03/01 10:00:19;;;;;;;16.70;11.63;;;;;;;7.50;51.41;102746.16;5255755;28;20025;-72
2022/03/01 10:02:57;;;;;;;13.88;10.98;;;;;;;7.67;50.67;102748.94;5248741;28;20531;-72
2022/03/01 10:05:38;;;;;;;17.88;11.57;;;;;;;7.72;49.96;102748.72;5250527;28;20627;-71
2022/03/01 10:08:15;;;;;;;13.60;10.25;;;;;;;7.72;49.51;102751.34;5254645;28;20372;-72
2022/03/01 10:10:52;;;;;;;14.10;11.05;;;;;;;7.71;49.40;102744.44;5252900;28;20040;-71
2022/03/01 10:13:29;;;;;;;15.43;10.38;;;;;;;7.72;48.83;102754.78;5256339;28;20036;-72
2022/03/01 10:16:06;;;;;;;14.07;11.32;;;;;;;7.81;50.71;102758.78;5258993;28;20433;-71
2022/03/01 10:18:40;;;;;;;18.35;11.98;;;;;;;7.78;49.06;102749.31;5256760;28;20028;-71
2022/03/01 10:21:12;;;;;;;15.65;11.43;;;;;;;7.77;48.49;102731.13;5253745;28;20021;-72
2022/03/01 10:23:55;;;;;;;15.18;10.73;;;;;;;8.03;50.24;102741.28;5256470;28;20024;-71
2022/03/01 10:26:31;;;;;;;16.05;10.98;;;;;;;7.99;49.66;102744.09;5255589;28;20066;-72
2022/03/01 10:29:04;;;;;;;14.57;11.18;;;;;;;8.00;48.57;102741.44;5253765;28;20025;-72
2022/03/01 10:31:35;;;;;;;;;;;;;;;8.44;47.32;102738.63;5258816;28;20090;-72
2022/03/01 10:34:09;;;;;;;16.60;11.60;;;;;;;8.18;48.85;102733.69;5255572;28;20003;-72
2022/03/01 10:36:44;;;;;;;17.63;11.27;;;;;;;8.26;47.80;102721.16;5255636;28;20258;-71
2022/03/01 10:39:17;;;;;;;14.30;10.05;;;;;;;8.42;48.93;102716.13;5252446;28;20076;-72
2022/03/01 10:41:50;;;;;;;14.27;11.43;;;;;;;8.57;48.62;102727.63;5252045;28;20116;-72
2022/03/01 10:44:29;;;;;;;14.00;11.02;;;;;;;8.75;49.87;102724.13;5255116;28;20043;-72
2022/03/01 10:47:02;;;;;;;13.82;10.77;;;;;;;8.76;48.24;102725.84;5252960;28;20581;-72
2022/03/01 10:49:35;;;;;;;16.40;11.45;;;;;;;8.89;48.73;102728.72;5254182;28;20613;-72
2022/03/01 10:52:08;;;;;;;14.00;11.60;;;;;;;8.99;47.92;102728.22;5257564;28;20038;-72
2022/03/01 10:54:42;;;;;;;16.85;11.98;;;;;;;9.08;48.30;102741.75;5255665;28;20039;-72
2022/03/01 10:57:22;;;;;;;15.57;10.98;;;;;;;9.28;48.00;102746.88;5259392;28;20082;-71
2022/03/01 10:59:53;;;;;;;15.75;11.43;;;;;;;9.24;46.41;102753.16;5256149;28;20024;-72
2022/03/01 11:02:24;;;;;;;16.42;11.15;;;;;;;9.31;46.76;102746.72;5258201;28;20071;-72
2022/03/01 11:04:56;;;;;;;15.52;10.80;;;;;;;9.27;45.61;102726.84;5255651;28;20039;-72
2022/03/01 11:07:29;;;;;;;18.50;11.90;;;;;;;9.40;47.00;102740.19;5257393;28;20043;-72
2022/03/01 11:10:05;;;;;;;14.95;11.27;;;;;;;9.45;46.76;102741.66;5255449;28;20045;-72
2022/03/01 11:12:36;;;;;;;17.50;11.45;;;;;;;9.46;46.03;102743.34;5254383;28;20040;-73
2022/03/01 11:15:38;;;;;;;14.27;10.75;;;;;;;9.52;46.50;102723.88;5255684;28;20397;-73
2022/03/01 11:18:27;;;;;;;14.15;11.00;;;;;;;9.68;45.06;102750.97;5253574;28;20098;-72
2022/03/01 11:21:03;;;;;;;16.15;11.77;;;;;;;9.63;46.26;102749.50;5257843;28;20013;-72
2022/03/01 11:23:34;;;;;;;15.35;11.73;;;;;;;9.66;45.90;102744.09;5258404;28;20367;-72
2022/03/01 11:26:08;;;;;;;15.35;11.25;;;;;;;9.65;45.65;102747.66;5258858;28;20029;-72
2022/03/01 11:28:40;;;;;;;15.77;11.25;;;;;;;9.68;45.15;102737.03;5254644;28;20545;-72
2022/03/01 11:31:27;;;;;;;16.27;11.93;;;;;;;9.98;46.57;102743.31;5257731;28;20473;-73
2022/03/01 11:34:00;;;;;;;17.70;10.60;;;;;;;9.86;47.08;102741.34;5254538;28;20108;-73
2022/03/01 11:36:33;;;;;;;14.77;10.82;;;;;;;9.92;44.99;102741.00;5254736;28;20095;-73
2022/03/01 11:39:08;;;;;;;15.95;11.82;;;;;;;10.04;46.57;102739.53;5258086;28;20643;-72
2022/03/01 11:41:41;;;;;;;17.10;11.75;;;;;;;10.08;47.00;102735.00;5254345;28;20032;-72
2022/03/01 11:44:21;;;;;;;14.95;11.65;;;;;;;10.20;46.92;102737.78;5254632;28;20032;-72